Terminal Aerodrome Forecast
Issued by NWS

Home | Current Version | Previous Version | Graphics & Text | Print | Product List | Glossary On
Versions: 1 2 3 4 5 6 7 8 9 10 11 12 13 14 15 16 17 18
000
FTUS43 KICT 301700
TAFCNU
TAF
KCNU 301734Z 3018/3118 VRB05KT P6SM VCSH SCT025 OVC050
      TEMPO 3019/3023 5SM -SHRA SCT015 OVC035
     FM310000 04005KT P6SM SCT015 OVC040
     FM310300 04005KT P6SM SCT080
      TEMPO 3109/3113 4SM BR SCT007=

USA.gov is the U.S. government's official web portal to all federal, state and local government web resources and services.